createdAt,value
2018-12-31T00:01:44.333Z,17.70
2018-12-31T00:04:12.654Z,16.37
2018-12-31T00:06:40.965Z,17.50
2018-12-31T00:09:09.285Z,17.35
2018-12-31T00:11:37.586Z,17.50
2018-12-31T00:14:05.974Z,17.17
2018-12-31T00:16:34.275Z,17.20
2018-12-31T00:19:02.649Z,17.15
2018-12-31T00:21:30.975Z,15.93
2018-12-31T00:23:59.520Z,16.85
2018-12-31T00:26:28.095Z,15.63
2018-12-31T00:28:56.382Z,15.32
2018-12-31T00:31:24.682Z,16.55
2018-12-31T00:33:53.007Z,15.80
2018-12-31T00:36:21.311Z,15.50
2018-12-31T00:38:49.626Z,15.10
2018-12-31T00:41:17.916Z,15.48
2018-12-31T00:43:46.201Z,15.40
2018-12-31T00:46:14.516Z,14.70
2018-12-31T00:48:42.810Z,15.60
2018-12-31T00:51:11.132Z,15.98
2018-12-31T00:53:39.422Z,15.83
2018-12-31T00:56:07.746Z,16.30
2018-12-31T00:58:36.305Z,15.43
2018-12-31T01:01:04.599Z,15.77
2018-12-31T01:03:32.907Z,16.07
2018-12-31T01:06:01.215Z,16.20
2018-12-31T01:08:29.533Z,15.38
2018-12-31T01:10:57.837Z,16.15
2018-12-31T01:13:26.393Z,15.28
2018-12-31T01:15:54.698Z,15.40
2018-12-31T01:18:23.027Z,15.20
2018-12-31T01:20:51.329Z,16.30
2018-12-31T01:23:19.654Z,15.60
2018-12-31T01:25:47.928Z,15.75
2018-12-31T01:28:16.234Z,16.40
2018-12-31T01:30:44.539Z,16.62
2018-12-31T01:33:12.848Z,15.35
2018-12-31T01:35:41.157Z,15.40
2018-12-31T01:38:09.450Z,14.87
2018-12-31T01:40:37.769Z,14.58
2018-12-31T01:43:06.139Z,14.78
2018-12-31T01:45:34.522Z,15.13
2018-12-31T01:48:02.813Z,15.25
2018-12-31T01:50:31.134Z,14.75
2018-12-31T01:52:59.420Z,15.05
2018-12-31T01:55:27.731Z,15.63
2018-12-31T01:57:56.106Z,14.37
2018-12-31T02:00:24.418Z,15.13
2018-12-31T02:02:52.724Z,15.20
2018-12-31T02:05:21.031Z,16.60
2018-12-31T02:07:49.337Z,16.87
2018-12-31T02:10:17.626Z,17.05
2018-12-31T02:12:45.950Z,16.95
2018-12-31T02:15:14.242Z,18.55
2018-12-31T02:17:42.544Z,18.30
2018-12-31T02:20:10.855Z,19.43
2018-12-31T02:22:40.828Z,18.70
2018-12-31T02:25:09.041Z,18.93
2018-12-31T02:27:37.334Z,19.33
2018-12-31T02:30:05.679Z,20.23
2018-12-31T02:32:33.931Z,20.50
2018-12-31T02:35:02.253Z,19.37
2018-12-31T02:37:30.545Z,20.92
2018-12-31T02:39:59.123Z,20.62
2018-12-31T02:42:27.412Z,19.97
2018-12-31T02:44:55.738Z,20.70
2018-12-31T02:47:24.026Z,20.70
2018-12-31T02:49:52.344Z,21.65
2018-12-31T02:52:20.635Z,20.75
2018-12-31T02:54:48.951Z,20.90
2018-12-31T02:57:17.261Z,21.73
2018-12-31T02:59:45.650Z,22.80
2018-12-31T03:02:13.957Z,22.30
2018-12-31T03:04:42.265Z,22.90
2018-12-31T03:07:10.562Z,21.02
2018-12-31T03:09:38.851Z,22.30
2018-12-31T03:12:07.168Z,23.47
2018-12-31T03:14:35.543Z,22.30
2018-12-31T03:17:03.863Z,22.30
2018-12-31T03:19:32.150Z,23.70
2018-12-31T03:22:00.458Z,23.20
2018-12-31T03:24:28.994Z,24.90
2018-12-31T03:26:57.297Z,25.95
2018-12-31T03:29:25.597Z,24.30
2018-12-31T03:31:54.176Z,25.50
2018-12-31T03:34:22.471Z,26.15
2018-12-31T03:36:50.780Z,24.53
2018-12-31T03:39:19.085Z,25.30
2018-12-31T03:41:47.555Z,24.10
2018-12-31T03:44:15.876Z,24.05
2018-12-31T03:46:44.188Z,23.80
2018-12-31T03:49:12.508Z,23.90
2018-12-31T03:51:40.808Z,23.05
2018-12-31T03:54:09.121Z,24.10
2018-12-31T03:56:37.425Z,24.47
2018-12-31T03:59:05.731Z,23.90
2018-12-31T04:01:34.021Z,23.52
2018-12-31T04:04:02.324Z,23.30
2018-12-31T04:06:30.628Z,20.88
2018-12-31T04:08:58.936Z,22.50
2018-12-31T04:11:27.258Z,22.52
2018-12-31T04:13:55.561Z,22.90
2018-12-31T04:16:23.862Z,22.93
2018-12-31T04:18:52.179Z,22.90
2018-12-31T04:21:20.733Z,25.30
2018-12-31T04:23:49.054Z,26.75
2018-12-31T04:26:17.366Z,24.60
2018-12-31T04:28:45.693Z,25.20
2018-12-31T04:31:14.243Z,25.20
2018-12-31T04:33:42.568Z,24.20
2018-12-31T04:36:10.867Z,24.43
2018-12-31T04:38:39.425Z,23.38
2018-12-31T04:41:07.729Z,23.50
2018-12-31T04:43:36.018Z,23.27
2018-12-31T04:46:04.336Z,23.75
2018-12-31T04:48:32.623Z,25.57
2018-12-31T04:51:00.938Z,25.90
2018-12-31T04:53:29.239Z,25.17
2018-12-31T04:55:57.567Z,27.00
2018-12-31T04:58:25.870Z,24.82
2018-12-31T05:00:54.157Z,24.37
2018-12-31T05:03:22.476Z,24.60
2018-12-31T05:05:50.778Z,26.25
2018-12-31T05:08:19.350Z,24.98
2018-12-31T05:10:47.647Z,26.07
2018-12-31T05:13:15.950Z,27.20
2018-12-31T05:15:44.279Z,27.45
2018-12-31T05:18:12.583Z,28.55
2018-12-31T05:20:40.898Z,29.53
2018-12-31T05:23:09.193Z,27.80
2018-12-31T05:25:37.497Z,29.70
2018-12-31T05:28:05.800Z,30.00
2018-12-31T05:30:34.195Z,28.90
2018-12-31T05:33:02.444Z,32.55
2018-12-31T05:35:30.771Z,31.87
2018-12-31T05:37:59.075Z,29.80
2018-12-31T05:40:27.383Z,30.27
2018-12-31T05:42:55.681Z,29.80
2018-12-31T05:45:23.994Z,30.95
2018-12-31T05:47:52.295Z,31.45
2018-12-31T05:50:20.581Z,30.43
2018-12-31T05:52:48.901Z,29.92
2018-12-31T05:55:17.429Z,29.90
2018-12-31T05:57:45.741Z,27.07
2018-12-31T06:00:14.042Z,30.37
2018-12-31T06:02:45.065Z,28.90
2018-12-31T06:05:13.353Z,36.30
2018-12-31T06:07:41.665Z,35.70
2018-12-31T06:10:09.956Z,28.65
2018-12-31T06:12:38.274Z,30.68
2018-12-31T06:15:06.902Z,30.30
2018-12-31T06:17:35.214Z,30.23
2018-12-31T06:20:03.536Z,29.25
2018-12-31T06:22:32.065Z,28.27
2018-12-31T06:25:00.370Z,29.45
2018-12-31T06:27:28.927Z,30.88
2018-12-31T06:29:57.247Z,29.63
2018-12-31T06:32:25.539Z,28.70
2018-12-31T06:34:53.862Z,28.02
2018-12-31T06:37:22.185Z,28.20
2018-12-31T06:39:50.754Z,27.87
2018-12-31T06:42:19.057Z,28.20
2018-12-31T06:44:47.369Z,27.27
2018-12-31T06:47:15.682Z,27.40
2018-12-31T06:49:43.970Z,26.30
2018-12-31T06:52:12.278Z,27.05
2018-12-31T06:54:40.568Z,26.57
2018-12-31T06:57:08.881Z,26.05
2018-12-31T06:59:37.170Z,26.45
2018-12-31T07:02:05.477Z,26.48
2018-12-31T07:04:33.781Z,27.10
2018-12-31T07:07:02.100Z,26.75
2018-12-31T07:09:30.410Z,26.65
2018-12-31T07:11:58.717Z,28.05
2018-12-31T07:14:27.017Z,28.15
2018-12-31T07:16:55.321Z,26.47
2018-12-31T07:19:23.624Z,27.60
2018-12-31T07:21:51.910Z,27.55
2018-12-31T07:24:20.225Z,27.17
2018-12-31T07:26:48.513Z,26.45
2018-12-31T07:29:16.824Z,27.90
2018-12-31T07:31:45.377Z,25.60
2018-12-31T07:34:13.697Z,26.90
2018-12-31T07:36:41.997Z,25.15
2018-12-31T07:39:10.306Z,26.15
2018-12-31T07:41:38.593Z,24.92
2018-12-31T07:44:07.141Z,26.25
2018-12-31T07:46:35.462Z,25.05
2018-12-31T07:49:03.769Z,25.00
2018-12-31T07:51:32.085Z,24.87
2018-12-31T07:54:00.375Z,24.50
2018-12-31T07:56:28.685Z,25.20
2018-12-31T07:58:56.974Z,24.82
2018-12-31T08:01:25.267Z,23.50
2018-12-31T08:03:53.586Z,24.52
2018-12-31T08:06:21.878Z,24.25
2018-12-31T08:08:50.197Z,22.55
2018-12-31T08:11:18.494Z,23.80
2018-12-31T08:13:46.809Z,23.05
2018-12-31T08:16:15.114Z,22.67
2018-12-31T08:18:43.409Z,21.70
2018-12-31T08:21:11.725Z,22.00
2018-12-31T08:23:40.021Z,21.75
2018-12-31T08:26:08.325Z,21.93
2018-12-31T08:28:36.621Z,22.95
2018-12-31T08:31:04.935Z,21.52
2018-12-31T08:33:33.253Z,22.65
2018-12-31T08:36:01.551Z,22.27
2018-12-31T08:38:29.876Z,22.22
2018-12-31T08:40:58.194Z,21.80
2018-12-31T08:43:26.502Z,22.00
2018-12-31T08:45:54.804Z,22.57
2018-12-31T08:48:23.114Z,22.13
2018-12-31T08:50:51.408Z,22.80
2018-12-31T08:53:19.735Z,21.68
2018-12-31T08:55:48.047Z,21.82
2018-12-31T08:58:16.591Z,20.97
2018-12-31T09:00:44.913Z,21.27
2018-12-31T09:03:13.208Z,40.70
2018-12-31T09:05:41.514Z,26.10
2018-12-31T09:08:09.808Z,19.90
2018-12-31T09:10:38.118Z,19.57
2018-12-31T09:13:06.410Z,18.82
2018-12-31T09:15:34.961Z,38.38
2018-12-31T09:18:03.284Z,39.67
2018-12-31T09:20:31.580Z,29.48
2018-12-31T09:22:59.893Z,18.37
2018-12-31T09:25:28.437Z,18.40
2018-12-31T09:27:56.760Z,17.62
2018-12-31T09:30:25.065Z,16.87
2018-12-31T09:32:53.382Z,16.60
2018-12-31T09:35:21.929Z,16.75
2018-12-31T09:37:50.222Z,16.77
2018-12-31T09:40:18.541Z,17.33
2018-12-31T09:42:46.839Z,15.50
2018-12-31T09:45:15.163Z,20.30
2018-12-31T09:47:43.471Z,20.17
2018-12-31T09:50:11.787Z,50.52
2018-12-31T09:52:40.100Z,22.37
2018-12-31T09:55:08.408Z,19.60
2018-12-31T09:57:36.714Z,26.90
2018-12-31T10:00:06.701Z,31.80
2018-12-31T10:02:35.013Z,17.25
2018-12-31T10:05:03.392Z,14.87
2018-12-31T10:07:31.699Z,14.83
2018-12-31T10:09:59.992Z,14.53
2018-12-31T10:12:28.548Z,14.47
2018-12-31T10:14:56.852Z,14.00
2018-12-31T10:17:25.418Z,14.50
2018-12-31T10:19:53.975Z,15.10
2018-12-31T10:22:22.552Z,14.45
2018-12-31T10:24:50.854Z,13.62
2018-12-31T10:27:19.184Z,15.18
2018-12-31T10:29:47.736Z,14.90
2018-12-31T10:32:16.046Z,14.70
2018-12-31T10:34:44.340Z,13.10
2018-12-31T10:37:12.648Z,13.70
2018-12-31T10:39:41.227Z,13.55
2018-12-31T10:42:09.541Z,13.03
2018-12-31T10:44:38.114Z,13.53
2018-12-31T10:47:06.454Z,13.13
2018-12-31T10:49:34.759Z,11.97
2018-12-31T10:52:03.062Z,13.50
2018-12-31T10:54:31.427Z,13.45
2018-12-31T10:56:59.735Z,12.90
2018-12-31T10:59:28.279Z,12.20
2018-12-31T11:01:56.597Z,12.10
2018-12-31T11:04:24.971Z,12.05
2018-12-31T11:06:53.283Z,12.40
2018-12-31T11:09:21.596Z,12.70
2018-12-31T11:11:49.882Z,11.63
2018-12-31T11:14:18.196Z,11.55
2018-12-31T11:16:46.489Z,12.78
2018-12-31T11:19:15.045Z,11.73
2018-12-31T11:21:43.338Z,12.10
2018-12-31T11:24:12.753Z,12.70
2018-12-31T11:26:41.131Z,12.00
2018-12-31T11:29:09.823Z,12.03
2018-12-31T11:31:38.378Z,12.13
2018-12-31T11:34:06.918Z,11.40
2018-12-31T11:36:35.231Z,11.88
2018-12-31T11:39:04.163Z,12.23
2018-12-31T11:41:32.487Z,12.30
2018-12-31T11:44:01.021Z,12.13
2018-12-31T11:46:29.339Z,12.37
2018-12-31T11:48:57.654Z,11.60
2018-12-31T11:51:25.958Z,11.90
2018-12-31T11:53:54.269Z,11.22
2018-12-31T11:56:22.573Z,12.27
2018-12-31T11:58:50.894Z,12.27
2018-12-31T12:01:19.376Z,11.22
2018-12-31T12:03:47.684Z,12.20
2018-12-31T12:06:15.974Z,11.40
2018-12-31T12:08:44.293Z,12.50
2018-12-31T12:11:13.033Z,12.75
2018-12-31T12:13:41.586Z,13.20
2018-12-31T12:16:09.891Z,12.63
2018-12-31T12:18:38.430Z,14.10
2018-12-31T12:21:06.740Z,13.10
2018-12-31T12:23:35.030Z,13.37
2018-12-31T12:26:03.347Z,12.03
2018-12-31T12:28:31.655Z,11.15
2018-12-31T12:30:59.988Z,11.20
2018-12-31T12:33:28.280Z,11.83
2018-12-31T12:35:56.588Z,11.95
2018-12-31T12:38:24.897Z,11.43
2018-12-31T12:40:53.457Z,11.88
2018-12-31T12:43:21.775Z,12.88
2018-12-31T12:45:50.331Z,17.93
2018-12-31T12:48:18.641Z,68.22
2018-12-31T12:50:46.939Z,18.37
2018-12-31T12:53:15.267Z,11.97
2018-12-31T12:55:43.572Z,12.50
2018-12-31T12:58:12.122Z,12.10
2018-12-31T13:00:40.444Z,40.60
2018-12-31T13:03:09.240Z,38.95
2018-12-31T13:05:37.566Z,16.70
2018-12-31T13:08:06.139Z,12.15
2018-12-31T13:10:34.439Z,40.13
2018-12-31T13:13:02.751Z,12.33
2018-12-31T13:15:31.334Z,12.80
2018-12-31T13:17:59.656Z,12.10
2018-12-31T13:20:27.974Z,11.53
2018-12-31T13:22:56.271Z,12.00
2018-12-31T13:25:24.851Z,12.65
2018-12-31T13:27:53.418Z,19.30
2018-12-31T13:30:21.743Z,32.20
2018-12-31T13:32:50.040Z,12.10
2018-12-31T13:35:18.371Z,20.48
2018-12-31T13:37:46.661Z,13.25
2018-12-31T13:40:14.955Z,12.85
2018-12-31T13:42:43.262Z,12.43
2018-12-31T13:45:11.570Z,12.23
2018-12-31T13:47:39.889Z,12.27
2018-12-31T13:50:08.206Z,11.63
2018-12-31T13:52:36.510Z,12.50
2018-12-31T13:55:05.447Z,12.93
2018-12-31T13:57:33.761Z,12.73
2018-12-31T14:00:02.069Z,12.50
2018-12-31T14:02:30.625Z,12.47
2018-12-31T14:04:58.954Z,13.05
2018-12-31T14:07:27.430Z,13.00
2018-12-31T14:09:55.755Z,13.22
2018-12-31T14:12:24.062Z,15.37
2018-12-31T14:14:52.381Z,27.00
2018-12-31T14:17:20.693Z,31.97
2018-12-31T14:19:49.195Z,19.02
2018-12-31T14:22:17.508Z,17.27
2018-12-31T14:24:45.815Z,15.90
2018-12-31T14:27:14.109Z,15.90
2018-12-31T14:29:42.657Z,15.72
2018-12-31T14:32:11.496Z,15.05
2018-12-31T14:34:39.807Z,15.20
2018-12-31T14:37:08.115Z,15.75
2018-12-31T14:39:36.417Z,24.55
2018-12-31T14:42:04.748Z,34.23
2018-12-31T14:44:33.037Z,24.15
2018-12-31T14:47:01.363Z,17.73
2018-12-31T14:49:29.667Z,19.07
2018-12-31T14:51:58.237Z,17.80
2018-12-31T14:54:26.539Z,19.02
2018-12-31T14:56:55.707Z,19.82
2018-12-31T14:59:24.282Z,20.60
2018-12-31T15:01:52.595Z,20.95
2018-12-31T15:04:20.886Z,20.43
2018-12-31T15:06:49.426Z,21.50
2018-12-31T15:09:17.752Z,22.67
2018-12-31T15:11:46.055Z,23.57
2018-12-31T15:14:14.382Z,28.07
2018-12-31T15:16:42.698Z,25.85
2018-12-31T15:19:11.264Z,25.80
2018-12-31T15:21:39.579Z,24.35
2018-12-31T15:24:08.248Z,24.55
2018-12-31T15:26:36.563Z,24.10
2018-12-31T15:29:04.890Z,23.98
2018-12-31T15:31:33.211Z,24.80
2018-12-31T15:34:01.522Z,40.98
2018-12-31T15:36:30.068Z,59.03
2018-12-31T15:38:58.644Z,32.08
2018-12-31T15:41:27.186Z,24.80
2018-12-31T15:43:55.490Z,25.08
2018-12-31T15:46:23.789Z,24.63
2018-12-31T15:48:52.365Z,24.37
2018-12-31T15:51:20.659Z,25.52
2018-12-31T15:53:48.965Z,25.62
2018-12-31T15:56:17.512Z,24.43
2018-12-31T15:58:45.819Z,24.52
2018-12-31T16:01:14.140Z,25.72
2018-12-31T16:03:42.630Z,25.37
2018-12-31T16:06:11.186Z,25.72
2018-12-31T16:08:39.723Z,27.85
2018-12-31T16:11:08.279Z,25.92
2018-12-31T16:13:36.590Z,30.17
2018-12-31T16:16:05.672Z,28.17
2018-12-31T16:18:33.982Z,26.10
2018-12-31T16:21:02.284Z,27.87
2018-12-31T16:23:30.869Z,42.38
2018-12-31T16:25:59.412Z,34.80
2018-12-31T16:28:27.706Z,31.10
2018-12-31T16:30:56.319Z,29.20
2018-12-31T16:33:24.571Z,30.50
2018-12-31T16:35:53.140Z,30.55
2018-12-31T16:38:21.446Z,30.50
2018-12-31T16:40:49.981Z,30.57
2018-12-31T16:43:18.308Z,26.70
2018-12-31T16:45:46.607Z,26.07
2018-12-31T16:48:14.993Z,25.32
2018-12-31T16:50:43.294Z,25.70
2018-12-31T16:53:11.834Z,25.62
2018-12-31T16:55:40.427Z,26.95
2018-12-31T16:58:08.733Z,26.50
2018-12-31T17:00:37.053Z,26.70
2018-12-31T17:03:05.611Z,25.80
2018-12-31T17:05:33.917Z,26.62
2018-12-31T17:08:02.229Z,26.85
2018-12-31T17:10:30.774Z,26.52
2018-12-31T17:12:59.092Z,25.70
2018-12-31T17:15:27.706Z,26.02
2018-12-31T17:17:56.967Z,26.62
2018-12-31T17:20:25.252Z,27.25
2018-12-31T17:22:53.739Z,27.90
2018-12-31T17:25:22.296Z,27.48
2018-12-31T17:27:50.871Z,26.50
2018-12-31T17:30:19.175Z,26.07
2018-12-31T17:32:47.494Z,37.55
2018-12-31T17:35:16.091Z,41.45
2018-12-31T17:37:44.414Z,30.40
2018-12-31T17:40:12.711Z,28.65
2018-12-31T17:42:41.018Z,25.70
2018-12-31T17:45:09.327Z,30.93
2018-12-31T17:47:37.890Z,64.40
2018-12-31T17:50:07.337Z,57.70
2018-12-31T17:52:35.640Z,38.50
2018-12-31T17:55:04.024Z,36.03
2018-12-31T17:57:32.316Z,34.40
2018-12-31T18:00:00.668Z,33.75
2018-12-31T18:02:28.937Z,28.00
2018-12-31T18:04:57.260Z,27.25
2018-12-31T18:07:25.575Z,29.40
2018-12-31T18:09:53.909Z,29.23
2018-12-31T18:12:22.202Z,35.05
2018-12-31T18:14:50.907Z,54.80
2018-12-31T18:17:19.217Z,35.17
2018-12-31T18:19:47.758Z,30.27
2018-12-31T18:22:16.093Z,31.62
2018-12-31T18:24:44.409Z,32.15
2018-12-31T18:27:12.736Z,31.93
2018-12-31T18:29:41.271Z,31.00
2018-12-31T18:32:09.580Z,37.60
2018-12-31T18:34:37.872Z,31.82
2018-12-31T18:37:06.175Z,30.95
2018-12-31T18:39:34.497Z,31.60
2018-12-31T18:42:02.814Z,28.17
2018-12-31T18:44:31.132Z,28.50
2018-12-31T18:46:59.671Z,26.95
2018-12-31T18:49:27.967Z,28.07
2018-12-31T18:51:56.542Z,34.95
2018-12-31T18:54:25.108Z,30.68
2018-12-31T18:56:53.427Z,28.93
2018-12-31T18:59:21.978Z,27.87
2018-12-31T19:01:50.293Z,29.55
2018-12-31T19:04:18.594Z,30.23
2018-12-31T19:06:47.136Z,27.80
2018-12-31T19:09:15.673Z,26.80
2018-12-31T19:11:44.035Z,27.13
2018-12-31T19:14:12.332Z,26.95
2018-12-31T19:16:40.891Z,25.12
2018-12-31T19:19:09.189Z,24.33
2018-12-31T19:21:37.660Z,24.02
2018-12-31T19:24:05.975Z,24.98
2018-12-31T19:26:34.507Z,24.55
2018-12-31T19:29:02.832Z,23.75
2018-12-31T19:31:31.123Z,24.17
2018-12-31T19:33:59.514Z,27.17
2018-12-31T19:36:27.880Z,24.32
2018-12-31T19:38:56.114Z,24.43
2018-12-31T19:41:24.440Z,22.58
2018-12-31T19:43:52.731Z,23.15
2018-12-31T19:46:21.051Z,23.50
2018-12-31T19:48:49.348Z,26.23
2018-12-31T19:51:17.641Z,25.00
2018-12-31T19:53:45.950Z,25.87
2018-12-31T19:56:14.240Z,22.37
2018-12-31T19:58:42.554Z,25.40
2018-12-31T20:01:11.130Z,23.90
2018-12-31T20:03:39.457Z,25.23
2018-12-31T20:06:07.744Z,24.50
2018-12-31T20:08:36.042Z,24.33
2018-12-31T20:11:04.349Z,23.77
2018-12-31T20:13:32.645Z,24.10
2018-12-31T20:16:00.950Z,25.48
2018-12-31T20:18:29.236Z,25.52
2018-12-31T20:20:57.540Z,26.82
2018-12-31T20:23:25.850Z,27.20
2018-12-31T20:25:54.158Z,25.52
2018-12-31T20:28:22.743Z,27.30
2018-12-31T20:30:51.295Z,27.40
2018-12-31T20:33:19.607Z,28.23
2018-12-31T20:35:47.920Z,27.58
2018-12-31T20:38:16.256Z,27.40
2018-12-31T20:40:44.560Z,28.23
2018-12-31T20:43:14.436Z,27.20
2018-12-31T20:45:42.764Z,28.42
2018-12-31T20:48:11.070Z,27.13
2018-12-31T20:50:39.378Z,27.35
2018-12-31T20:53:07.695Z,28.07
2018-12-31T20:55:36.235Z,38.17
2018-12-31T20:58:04.547Z,45.78
2018-12-31T21:00:32.866Z,40.08
2018-12-31T21:03:01.184Z,34.03
2018-12-31T21:05:29.482Z,33.57
2018-12-31T21:07:57.815Z,33.57
2018-12-31T21:10:26.094Z,36.50
2018-12-31T21:12:54.638Z,37.50
2018-12-31T21:15:23.190Z,34.67
2018-12-31T21:17:51.741Z,35.27
2018-12-31T21:20:20.919Z,34.75
2018-12-31T21:22:49.222Z,38.00
2018-12-31T21:25:17.512Z,41.33
2018-12-31T21:27:45.826Z,36.30
2018-12-31T21:30:14.129Z,36.90
2018-12-31T21:32:42.454Z,34.83
2018-12-31T21:35:10.741Z,36.23
2018-12-31T21:37:39.226Z,45.85
2018-12-31T21:40:08.567Z,50.98
2018-12-31T21:42:36.887Z,38.63
2018-12-31T21:45:05.788Z,34.98
2018-12-31T21:47:34.118Z,35.40
2018-12-31T21:50:02.421Z,147.55
2018-12-31T21:52:30.727Z,40.50
2018-12-31T21:54:59.027Z,37.83
2018-12-31T21:57:27.566Z,38.38
2018-12-31T21:59:56.113Z,38.58
2018-12-31T22:02:24.410Z,38.73
2018-12-31T22:04:53.023Z,236.85
2018-12-31T22:07:21.338Z,47.38
2018-12-31T22:09:49.637Z,43.10
2018-12-31T22:12:17.958Z,41.00
2018-12-31T22:14:46.332Z,41.37
2018-12-31T22:17:14.902Z,41.00
2018-12-31T22:19:43.454Z,40.15
2018-12-31T22:22:12.006Z,39.20
2018-12-31T22:24:40.297Z,39.95
2018-12-31T22:27:08.601Z,40.92
2018-12-31T22:29:36.888Z,39.92
2018-12-31T22:32:05.486Z,41.30
2018-12-31T22:34:34.016Z,41.18
2018-12-31T22:37:02.340Z,41.05
2018-12-31T22:39:30.625Z,41.40
2018-12-31T22:41:58.933Z,41.90
2018-12-31T22:44:27.238Z,42.73
2018-12-31T22:46:55.545Z,41.83
2018-12-31T22:49:23.853Z,43.33
2018-12-31T22:51:52.158Z,44.60
2018-12-31T22:54:20.462Z,46.93
2018-12-31T22:56:48.764Z,45.50
2018-12-31T22:59:17.159Z,46.18
2018-12-31T23:01:45.745Z,43.45
2018-12-31T23:04:14.051Z,119.35
2018-12-31T23:06:42.364Z,261.57
2018-12-31T23:09:11.424Z,268.53
2018-12-31T23:11:40.115Z,150.05
2018-12-31T23:14:08.410Z,245.73
2018-12-31T23:16:36.739Z,273.85
2018-12-31T23:19:05.283Z,348.02
2018-12-31T23:21:33.832Z,220.43
2018-12-31T23:24:02.215Z,237.32
2018-12-31T23:26:30.590Z,255.20
2018-12-31T23:28:59.145Z,124.40
2018-12-31T23:31:27.453Z,102.20
2018-12-31T23:33:55.916Z,102.30
2018-12-31T23:36:24.221Z,93.03
2018-12-31T23:38:53.072Z,79.40
2018-12-31T23:41:21.374Z,75.97
2018-12-31T23:43:49.677Z,79.05
2018-12-31T23:46:17.968Z,74.95
2018-12-31T23:48:46.272Z,76.55
2018-12-31T23:51:14.956Z,58.98
2018-12-31T23:53:43.242Z,56.77
2018-12-31T23:56:11.811Z,53.83
2018-12-31T23:58:40.115Z,55.20
